Terminal Aerodrome Forecast
Issued by NWS

Home | Current Version | Previous Version | Graphics & Text | Print | Product List | Glossary On
Versions: 1 2 3 4 5 6 7 8 9 10 11 12 13 14
323
FTUS41 KCLE 250537
TAFFDY
TAF
KFDY 250537Z 2506/2606 01004KT P6SM FEW035
     FM251600 05007KT P6SM SCT040
     FM260200 09005KT P6SM FEW250=

USA.gov is the U.S. government's official web portal to all federal, state and local government web resources and services.